Date,TemperatureHighF,TemperatureAvgF,TemperatureLowF,DewpointHighF,DewpointAvgF,DewpointLowF,HumidityHigh,HumidityAvg,HumidityLow,PressureMaxIn,PressureMinIn,WindSpeedMaxMPH,WindSpeedAvgMPH,GustSpeedMaxMPH,PrecipitationSumIn
2013-9-1,87.8,75.3,67.1,72.9,69.3,65.9,97,83,60,29.84,29.73,10,1,12,0.00
2013-9-2,85.8,75.7,68.1,72.8,67.3,60.3,97,77,49,29.89,29.78,10,1,13,0.00
2013-9-3,78.3,67.3,58.2,60.6,55.9,51.9,88,69,44,30.05,29.88,9,1,0,0.00
2013-9-4,85.8,68.3,54.4,61.8,57.5,53.0,97,72,42,30.16,30.05,6,0,0,0.00
2013-9-5,87.8,72.3,59.0,65.9,60.9,56.5,96,71,38,30.18,30.10,8,0,0,0.00
2013-9-6,86.6,71.3,57.5,62.4,57.2,50.6,85,63,41,30.22,30.06,6,0,0,0.00
2013-9-7,89.2,73.7,59.5,68.4,63.0,56.6,91,72,45,30.08,29.93,8,1,0,0.00
2013-9-8,91.6,77.4,68.6,73.8,68.4,66.3,94,76,50,29.97,29.89,5,0,0,0.02
2013-9-9,94.3,79.2,66.4,71.9,68.7,65.2,97,73,45,30.00,29.90,11,1,14,0.00
2013-9-10,96.5,80.0,73.1,75.6,71.1,67.9,91,76,43,30.10,29.98,13,1,20,0.00
2013-9-11,97.2,79.9,69.5,74.5,69.3,62.7,94,73,33,30.13,30.00,9,1,0,0.00
2013-9-12,83.0,75.0,68.1,71.8,68.3,53.1,96,81,53,30.00,29.87,7,0,0,0.22
2013-9-13,68.5,61.5,51.4,57.1,48.4,42.6,89,64,42,30.08,29.94,13,2,18,0.00
2013-9-14,74.0,56.2,43.2,46.5,43.3,38.7,93,66,29,30.20,30.08,7,0,0,0.00
2013-9-15,79.7,62.5,45.3,60.1,49.9,43.7,96,68,35,30.15,30.01,10,1,13,0.00
2013-9-16,71.5,63.9,54.8,61.1,55.9,50.5,86,76,57,30.27,30.05,8,1,0,0.00
2013-9-17,76.1,62.1,48.7,55.4,51.7,47.3,96,72,43,30.32,30.14,7,0,0,0.00
2013-9-18,80.8,66.9,56.3,66.3,60.1,53.3,91,80,58,30.15,30.03,9,1,0,0.00
2013-9-19,81.2,70.2,64.8,72.1,67.2,63.4,97,91,73,30.12,29.93,9,1,0,0.93
2013-9-20,83.5,71.7,67.3,70.6,68.2,65.7,96,89,64,29.96,29.80,8,1,12,0.26
2013-9-21,74.6,63.4,55.6,66.6,54.7,47.1,97,76,41,29.89,29.75,12,1,15,0.20
2013-9-22,71.8,57.8,46.8,52.1,48.2,44.7,97,73,43,30.02,29.89,8,0,0,0.00
2013-9-23,73.9,57.7,44.2,50.0,47.3,42.8,96,72,41,30.12,30.01,10,0,0,0.00
2013-9-24,79.1,62.1,46.5,60.4,52.9,44.9,96,74,50,30.07,29.89,8,0,0,0.00
2013-9-25,79.9,67.7,57.7,61.5,56.9,54.1,90,70,45,29.92,29.84,7,0,0,0.00
2013-9-26,82.3,64.2,49.4,56.5,52.5,48.0,95,70,34,30.06,29.91,6,0,0,0.00
2013-9-27,84.3,65.6,50.9,60.7,53.9,49.5,96,71,37,30.17,30.06,7,0,0,0.00
2013-9-28,84.3,66.3,50.6,60.2,55.4,49.2,97,72,38,30.17,30.02,9,1,0,0.00
2013-9-29,64.3,61.0,57.9,60.9,58.7,55.1,97,92,78,30.04,29.99,7,1,0,0.37
2013-9-30,71.5,64.1,60.8,64.6,61.6,59.7,98,92,77,30.03,29.94,6,1,0,0.02